This is the latest recevied weather packets stored in our database for station/object KM4KMO-14. If no packets are shown the sender has not sent any weather packets the latest 10 day(s).
| Time | Temp. | Humidity | Pressure | Rain* | Wind** | Luminosity | Snow |
|---|---|---|---|---|---|---|---|
| 1777576354 | 20.56° C | 49% | 1010.6 hPa | 0 mm | - | - | - |
| 1777575454 | 20.56° C | 52% | 1010.6 hPa | 0 mm | - | - | - |
| 1777574554 | 21.11° C | 50% | 1010.4 hPa | 0 mm | - | - | - |
| 1777573654 | 20.56° C | 45% | 1010.1 hPa | 0 mm | - | - | - |
| 1777572754 | 21.67° C | 46% | 1010.5 hPa | 0 mm | - | - | - |
| 1777571854 | 21.11° C | 51% | 1010.6 hPa | 0 mm | - | - | - |
| 1777570954 | 21.11° C | 48% | 1010.6 hPa | 0 mm | - | - | - |
| 1777570054 | 21.11° C | 51% | 1010.5 hPa | 0 mm | - | - | - |
| 1777569154 | 21.11° C | 52% | 1010.6 hPa | 0 mm | - | - | - |
| 1777568254 | 20° C | 54% | 1010.8 hPa | 0 mm | - | - | - |
| 1777567354 | 19.44° C | 57% | 1011 hPa | 0 mm | - | - | - |
| 1777566454 | 19.44° C | 59% | 1010.9 hPa | 0 mm | - | - | - |
| 1777565554 | 19.44° C | 60% | 1011 hPa | 0 mm | - | - | - |
| 1777564654 | 18.89° C | 61% | 1011.1 hPa | 0 mm | - | - | - |
| 1777563754 | 18.33° C | 62% | 1011.1 hPa | 0 mm | - | - | - |
| 1777562854 | 17.78° C | 62% | 1011.1 hPa | 0 mm | - | - | - |
| 1777561954 | 16.67° C | 65% | 1011.2 hPa | 0 mm | - | - | - |
| 1777561054 | 16.67° C | 63% | 1010.8 hPa | 0 mm | - | - | - |
| 1777560154 | 16.11° C | 67% | 1011 hPa | 0 mm | - | - | - |
| 1777559254 | 15.56° C | 68% | 1010.9 hPa | 0 mm | - | - | - |
| 1777558354 | 15° C | 70% | 1010.9 hPa | 0 mm | - | - | - |
| 1777557454 | 14.44° C | 73% | 1011 hPa | 0 mm | - | - | - |
| 1777556554 | 13.89° C | 73% | 1010.9 hPa | 0 mm | - | - | - |
| 1777555654 | 13.89° C | 75% | 1010.9 hPa | 0 mm | - | - | - |
| 1777554754 | 13.33° C | 77% | 1010.6 hPa | 0 mm | - | - | - |
* Rain latest hour (hover to see other rain measurements)
** Current wind speed in m/s (hover to see current wind gust speed)